Dameron, Maryland
Current Conditions -  °F | °C
As of 4:53 AM on Sunday 21 Dec 2014 (Local Time) from KNUI Reporting Station
Overcast Overcast  
Wind Chill: 35°   Ceiling: 7500
Heat Index: 35°   Visibility: 10mi
Dew Point: 24°   Wind: 3mph
Humidity: 64%   Direction: 330°NNW
Pressure: 30.3"   Gusts: NA
Location:  38.14°N, 76.35°W
Report Text: KNUI 210953Z AUTO 33003KT 10SM OVC075 02/M04 A3030 RMK AO2 SLP258 T00171044
Loading
Personal Weather Stations






























Interactive Weather Map New forecast layout! Learn more

10-Day Weather Forecast

Advertisements
Track Severe Weather on mobile